createdAt,value
2023-10-22T00:00:23.990Z,97807.00
2023-10-22T00:01:56.249Z,97820.00
2023-10-22T00:03:29.521Z,97815.00
2023-10-22T00:05:02.115Z,97807.00
2023-10-22T00:06:35.266Z,97816.00
2023-10-22T00:08:07.743Z,97818.00
2023-10-22T00:09:42.344Z,97816.00
2023-10-22T00:11:14.635Z,97814.00
2023-10-22T00:12:47.801Z,97818.00
2023-10-22T00:14:20.021Z,97819.00
2023-10-22T00:15:53.197Z,97815.00
2023-10-22T00:17:25.464Z,97819.00
2023-10-22T00:18:58.629Z,97821.00
2023-10-22T00:20:31.690Z,97825.00
2023-10-22T00:22:05.825Z,97832.00
2023-10-22T00:23:38.196Z,97830.00
2023-10-22T00:25:13.153Z,97825.00
2023-10-22T00:26:45.381Z,97828.00
2023-10-22T00:28:18.609Z,97826.00
2023-10-22T00:29:51.255Z,97834.00
2023-10-22T00:31:24.918Z,97831.00
2023-10-22T00:32:57.188Z,97834.00
2023-10-22T00:34:30.631Z,97837.00
2023-10-22T00:36:03.939Z,97822.00
2023-10-22T00:37:37.122Z,97836.00
2023-10-22T00:39:09.625Z,97835.00
2023-10-22T00:40:44.184Z,97847.00
2023-10-22T00:42:17.408Z,97837.00
2023-10-22T00:43:49.590Z,97835.00
2023-10-22T00:45:22.972Z,97844.00
2023-10-22T00:46:55.815Z,97842.00
2023-10-22T00:48:29.094Z,97839.00
2023-10-22T00:50:02.657Z,97839.00
2023-10-22T00:51:35.454Z,97840.00
2023-10-22T00:53:09.595Z,97844.00
2023-10-22T00:54:42.988Z,97849.00
2023-10-22T00:56:17.390Z,97853.00
2023-10-22T00:57:50.938Z,97854.00
2023-10-22T00:59:24.935Z,97843.00
2023-10-22T01:00:58.504Z,97849.00
2023-10-22T01:02:30.812Z,97845.00
2023-10-22T01:04:05.264Z,97849.00
2023-10-22T01:05:39.031Z,97844.00
2023-10-22T01:07:12.737Z,97849.00
2023-10-22T01:08:47.245Z,97841.00
2023-10-22T01:10:20.691Z,97833.00
2023-10-22T01:12:04.187Z,97844.00
2023-10-22T01:13:36.919Z,97843.00
2023-10-22T01:15:11.125Z,97851.00
2023-10-22T01:16:44.450Z,97851.00
2023-10-22T01:18:17.590Z,97849.00
2023-10-22T01:19:51.477Z,97852.00
2023-10-22T01:21:24.751Z,97858.00
2023-10-22T01:22:57.962Z,97861.00
2023-10-22T01:24:34.305Z,97857.00
2023-10-22T01:26:08.578Z,97867.00
2023-10-22T01:27:40.793Z,97868.00
2023-10-22T01:29:14.992Z,97865.00
2023-10-22T01:30:47.296Z,97858.00
2023-10-22T01:32:20.556Z,97864.00
2023-10-22T01:33:53.697Z,97866.00
2023-10-22T01:35:27.057Z,97859.00
2023-10-22T01:36:59.207Z,97868.00
2023-10-22T01:38:32.667Z,97871.00
2023-10-22T01:40:08.721Z,97873.00
2023-10-22T01:41:42.734Z,97866.00
2023-10-22T01:43:15.078Z,97868.00
2023-10-22T01:44:48.609Z,97872.00
2023-10-22T01:46:22.780Z,97875.00
2023-10-22T01:47:55.150Z,97874.00
2023-10-22T01:49:28.459Z,97872.00
2023-10-22T01:51:00.727Z,97874.00
2023-10-22T01:52:34.081Z,97881.00
2023-10-22T01:54:07.823Z,97879.00
2023-10-22T01:55:41.444Z,97882.00
2023-10-22T01:57:17.529Z,97879.00
2023-10-22T01:58:49.725Z,97888.00
2023-10-22T02:00:23.098Z,97884.00
2023-10-22T02:01:56.290Z,97882.00
2023-10-22T02:03:28.699Z,97876.00
2023-10-22T02:05:02.441Z,97892.00
2023-10-22T02:06:34.787Z,97889.00
2023-10-22T02:08:09.000Z,97891.00
2023-10-22T02:09:41.244Z,97889.00
2023-10-22T02:11:15.776Z,97898.00
2023-10-22T02:12:48.065Z,97898.00
2023-10-22T02:14:21.492Z,97896.00
2023-10-22T02:15:54.052Z,97899.00
2023-10-22T02:17:27.234Z,97895.00
2023-10-22T02:18:59.507Z,97895.00
2023-10-22T02:20:32.628Z,97895.00
2023-10-22T02:22:05.264Z,97904.00
2023-10-22T02:23:40.403Z,97902.00
2023-10-22T02:25:14.644Z,97906.00
2023-10-22T02:26:49.473Z,97911.00
2023-10-22T02:28:22.014Z,97902.00
2023-10-22T02:29:55.301Z,97897.00
2023-10-22T02:31:28.602Z,97911.00
2023-10-22T02:33:00.844Z,97907.00
2023-10-22T02:34:34.229Z,97903.00
2023-10-22T02:36:08.129Z,97904.00
2023-10-22T02:37:41.390Z,97908.00
2023-10-22T02:39:14.877Z,97911.00
2023-10-22T02:40:49.738Z,97911.00
2023-10-22T02:42:24.304Z,97925.00
2023-10-22T02:43:56.658Z,97922.00
2023-10-22T02:45:29.862Z,97922.00
2023-10-22T02:47:02.214Z,97928.00
2023-10-22T02:48:35.487Z,97926.00
2023-10-22T02:50:09.464Z,97921.00
2023-10-22T02:51:42.599Z,97934.00
2023-10-22T02:53:15.369Z,97923.00
2023-10-22T02:54:50.006Z,97925.00
2023-10-22T02:56:22.531Z,97935.00
2023-10-22T02:57:57.064Z,97934.00
2023-10-22T02:59:29.300Z,97925.00
2023-10-22T03:01:06.965Z,97936.00
2023-10-22T03:02:40.736Z,97933.00
2023-10-22T03:04:14.068Z,97934.00
2023-10-22T03:05:46.962Z,97942.00
2023-10-22T03:07:20.406Z,97938.00
2023-10-22T03:08:52.712Z,97938.00
2023-10-22T03:10:25.923Z,97936.00
2023-10-22T03:11:58.186Z,97940.00
2023-10-22T03:13:33.486Z,97936.00
2023-10-22T03:15:08.414Z,97941.00
2023-10-22T03:16:41.691Z,97943.00
2023-10-22T03:18:14.903Z,97942.00
2023-10-22T03:19:48.684Z,97938.00
2023-10-22T03:21:21.703Z,97946.00
2023-10-22T03:22:54.992Z,97949.00
2023-10-22T03:24:28.395Z,97946.00
2023-10-22T03:26:06.873Z,97949.00
2023-10-22T03:27:40.650Z,97951.00
2023-10-22T03:29:14.146Z,97950.00
2023-10-22T03:30:47.358Z,97959.00
2023-10-22T03:32:20.078Z,97967.00
2023-10-22T03:33:56.058Z,97966.00
2023-10-22T03:35:29.488Z,97980.00
2023-10-22T03:37:05.635Z,97963.00
2023-10-22T03:38:39.444Z,97972.00
2023-10-22T03:40:12.482Z,97971.00
2023-10-22T03:41:46.102Z,97972.00
2023-10-22T03:43:18.265Z,97974.00
2023-10-22T03:44:53.086Z,97968.00
2023-10-22T03:46:25.458Z,97973.00
2023-10-22T03:47:58.951Z,97973.00
2023-10-22T03:49:32.550Z,97970.00
2023-10-22T03:51:04.981Z,97969.00
2023-10-22T03:52:43.614Z,97955.00
2023-10-22T03:54:16.843Z,97972.00
2023-10-22T03:55:50.253Z,97966.00
2023-10-22T03:57:22.471Z,97966.00
2023-10-22T03:58:55.974Z,97966.00
2023-10-22T04:00:29.537Z,97978.00
2023-10-22T04:02:03.011Z,97981.00
2023-10-22T04:03:35.388Z,97984.00
2023-10-22T04:05:09.676Z,97988.00
2023-10-22T04:06:41.850Z,97991.00
2023-10-22T04:08:15.003Z,97994.00
2023-10-22T04:09:48.474Z,98004.00
2023-10-22T04:11:21.106Z,97997.00
2023-10-22T04:12:54.274Z,97995.00
2023-10-22T04:14:26.523Z,97997.00
2023-10-22T04:16:01.072Z,97992.00
2023-10-22T04:17:33.397Z,98010.00
2023-10-22T04:19:07.795Z,98018.00
2023-10-22T04:20:40.495Z,98015.00
2023-10-22T04:22:13.741Z,98026.00
2023-10-22T04:23:47.609Z,98027.00
2023-10-22T04:25:20.846Z,98037.00
2023-10-22T04:26:53.176Z,98040.00
2023-10-22T04:28:26.593Z,98051.00
2023-10-22T04:29:58.902Z,98047.00
2023-10-22T04:31:33.441Z,98038.00
2023-10-22T04:33:06.536Z,98032.00
2023-10-22T04:34:40.638Z,98035.00
2023-10-22T04:36:18.206Z,98034.00
2023-10-22T04:37:54.784Z,98045.00
2023-10-22T04:39:28.007Z,98040.00
2023-10-22T04:41:00.263Z,98045.00
2023-10-22T04:42:33.483Z,98040.00
2023-10-22T04:44:06.915Z,98032.00
2023-10-22T04:45:47.188Z,98036.00
2023-10-22T04:47:20.994Z,98039.00
2023-10-22T04:48:55.333Z,98038.00
2023-10-22T04:50:27.627Z,98037.00
2023-10-22T04:52:00.846Z,98039.00
2023-10-22T04:53:33.325Z,98055.00
2023-10-22T04:55:07.878Z,98056.00
2023-10-22T04:56:41.320Z,98058.00
2023-10-22T04:58:13.757Z,98062.00
2023-10-22T04:59:47.071Z,98065.00
2023-10-22T05:01:20.581Z,98061.00
2023-10-22T05:02:54.195Z,98077.00
2023-10-22T05:04:29.386Z,98073.00
2023-10-22T05:06:08.450Z,98079.00
2023-10-22T05:07:43.014Z,98079.00
2023-10-22T05:09:16.486Z,98085.00
2023-10-22T05:10:48.779Z,98083.00
2023-10-22T05:12:22.031Z,98081.00
2023-10-22T05:14:16.275Z,98077.00
2023-10-22T05:15:54.169Z,98091.00
2023-10-22T05:17:27.531Z,98091.00
2023-10-22T05:19:01.111Z,98090.00
2023-10-22T05:20:34.393Z,98096.00
2023-10-22T05:22:06.717Z,98089.00
2023-10-22T05:23:39.961Z,98095.00
2023-10-22T05:25:13.865Z,98093.00
2023-10-22T05:26:46.282Z,98093.00
2023-10-22T05:28:19.458Z,98092.00
2023-10-22T05:29:51.980Z,98103.00
2023-10-22T05:31:25.208Z,98093.00
2023-10-22T05:33:02.137Z,98109.00
2023-10-22T05:34:37.416Z,98104.00
2023-10-22T05:36:17.283Z,98109.00
2023-10-22T05:37:52.376Z,98107.00
2023-10-22T05:39:25.846Z,98117.00
2023-10-22T05:40:58.975Z,98113.00
2023-10-22T05:42:32.377Z,98132.00
2023-10-22T05:44:05.978Z,98130.00
2023-10-22T05:45:38.371Z,98127.00
2023-10-22T05:47:11.684Z,98132.00
2023-10-22T05:48:43.973Z,98138.00
2023-10-22T05:50:18.673Z,98145.00
2023-10-22T05:51:52.291Z,98136.00
2023-10-22T05:53:25.655Z,98137.00
2023-10-22T05:54:57.868Z,98138.00
2023-10-22T05:56:31.194Z,98140.00
2023-10-22T05:58:03.927Z,98139.00
2023-10-22T05:59:37.347Z,98132.00
2023-10-22T06:01:10.458Z,98144.00
2023-10-22T06:02:44.854Z,98155.00
2023-10-22T06:04:17.331Z,98148.00
2023-10-22T06:05:52.266Z,98157.00
2023-10-22T06:07:26.046Z,98156.00
2023-10-22T06:08:58.587Z,98157.00
2023-10-22T06:10:31.848Z,98168.00
2023-10-22T06:12:05.607Z,98163.00
2023-10-22T06:13:39.566Z,98163.00
2023-10-22T06:15:11.845Z,98172.00
2023-10-22T06:16:45.107Z,98168.00
2023-10-22T06:18:17.694Z,98168.00
2023-10-22T06:19:51.036Z,98181.00
2023-10-22T06:21:25.059Z,98182.00
2023-10-22T06:22:58.673Z,98181.00
2023-10-22T06:24:30.901Z,98189.00
2023-10-22T06:26:04.140Z,98194.00
2023-10-22T06:27:36.536Z,98201.00
2023-10-22T06:29:09.724Z,98198.00
2023-10-22T06:30:42.175Z,98223.00
2023-10-22T06:32:15.374Z,98243.00
2023-10-22T06:33:47.975Z,98231.00
2023-10-22T06:35:22.350Z,98239.00
2023-10-22T06:36:56.869Z,98241.00
2023-10-22T06:38:30.074Z,98237.00
2023-10-22T06:40:02.320Z,98239.00
2023-10-22T06:41:35.451Z,98246.00
2023-10-22T06:43:07.993Z,98259.00
2023-10-22T06:44:43.543Z,98260.00
2023-10-22T06:46:18.225Z,98255.00
2023-10-22T06:47:51.971Z,98258.00
2023-10-22T06:49:24.206Z,98266.00
2023-10-22T06:50:57.515Z,98259.00
2023-10-22T06:52:31.345Z,98268.00
2023-10-22T06:54:05.725Z,98266.00
2023-10-22T06:55:41.882Z,98260.00
2023-10-22T06:57:15.153Z,98268.00
2023-10-22T06:58:47.907Z,98272.00
2023-10-22T07:00:21.473Z,98265.00
2023-10-22T07:01:53.736Z,98270.00
2023-10-22T07:03:27.094Z,98259.00
2023-10-22T07:04:59.747Z,98259.00
2023-10-22T07:06:33.042Z,98260.00
2023-10-22T07:08:08.008Z,98268.00
2023-10-22T07:09:40.284Z,98271.00
2023-10-22T07:11:13.551Z,98273.00
2023-10-22T07:12:45.966Z,98282.00
2023-10-22T07:14:19.534Z,98286.00
2023-10-22T07:15:52.174Z,98288.00
2023-10-22T07:17:25.592Z,98298.00
2023-10-22T07:18:57.897Z,98294.00
2023-10-22T07:20:31.158Z,98297.00
2023-10-22T07:22:04.065Z,98302.00
2023-10-22T07:23:38.581Z,98303.00
2023-10-22T07:25:11.193Z,98310.00
2023-10-22T07:26:44.515Z,98310.00
2023-10-22T07:28:17.550Z,98309.00
2023-10-22T07:29:51.191Z,98313.00
2023-10-22T07:31:24.674Z,98299.00
2023-10-22T07:32:57.189Z,98308.00
2023-10-22T07:34:31.262Z,98301.00
2023-10-22T07:36:05.264Z,98305.00
2023-10-22T07:37:38.284Z,98311.00
2023-10-22T07:39:13.771Z,98312.00
2023-10-22T07:40:46.065Z,98311.00
2023-10-22T07:42:19.356Z,98320.00
2023-10-22T07:43:51.945Z,98316.00
2023-10-22T07:45:27.127Z,98320.00
2023-10-22T07:46:59.772Z,98320.00
2023-10-22T07:48:34.986Z,98319.00
2023-10-22T07:50:08.936Z,98323.00
2023-10-22T07:51:42.089Z,98318.00
2023-10-22T07:53:15.722Z,98332.00
2023-10-22T07:54:53.278Z,98328.00
2023-10-22T07:56:25.767Z,98333.00
2023-10-22T07:58:00.517Z,98340.00
2023-10-22T07:59:32.612Z,98342.00
2023-10-22T08:01:07.176Z,98330.00
2023-10-22T08:02:39.431Z,98335.00
2023-10-22T08:04:12.755Z,98333.00
2023-10-22T08:05:45.099Z,98336.00
2023-10-22T08:07:20.076Z,98345.00
2023-10-22T08:08:55.743Z,98350.00
2023-10-22T08:10:30.668Z,98350.00
2023-10-22T08:12:06.850Z,98356.00
2023-10-22T08:13:39.596Z,98349.00
2023-10-22T08:15:13.200Z,98355.00
2023-10-22T08:16:45.494Z,98357.00
2023-10-22T08:18:18.897Z,98361.00
2023-10-22T08:19:51.241Z,98363.00
2023-10-22T08:21:24.545Z,98365.00
2023-10-22T08:22:57.116Z,98371.00
2023-10-22T08:24:30.761Z,98366.00
2023-10-22T08:26:04.438Z,98378.00
2023-10-22T08:27:37.741Z,98383.00
2023-10-22T08:29:11.628Z,98386.00
2023-10-22T08:30:45.936Z,98383.00
2023-10-22T08:32:19.157Z,98390.00
2023-10-22T08:33:51.406Z,98385.00
2023-10-22T08:35:26.268Z,98387.00
2023-10-22T08:36:58.348Z,98393.00
2023-10-22T08:38:31.492Z,98395.00
2023-10-22T08:40:08.512Z,98406.00
2023-10-22T08:41:52.988Z,98401.00
2023-10-22T08:43:30.291Z,98400.00
2023-10-22T08:45:05.759Z,98410.00
2023-10-22T08:46:39.060Z,98415.00
2023-10-22T08:48:11.809Z,98411.00
2023-10-22T08:49:45.951Z,98411.00
2023-10-22T08:51:23.308Z,98407.00
2023-10-22T08:52:56.627Z,98419.00
2023-10-22T08:54:29.910Z,98423.00
2023-10-22T08:56:02.910Z,98418.00
2023-10-22T08:57:37.983Z,98421.00
2023-10-22T08:59:12.526Z,98424.00
2023-10-22T09:00:46.680Z,98433.00
2023-10-22T09:02:22.682Z,98437.00
2023-10-22T09:03:56.403Z,98442.00
2023-10-22T09:05:30.459Z,98434.00
2023-10-22T09:07:03.978Z,98441.00
2023-10-22T09:08:47.619Z,98446.00
2023-10-22T09:10:29.725Z,98448.00
2023-10-22T09:12:04.019Z,98443.00
2023-10-22T09:13:37.620Z,98445.00
2023-10-22T09:15:11.579Z,98443.00
2023-10-22T09:16:43.835Z,98450.00
2023-10-22T09:18:19.885Z,98452.00
2023-10-22T09:19:53.765Z,98449.00
2023-10-22T09:21:43.859Z,98452.00
2023-10-22T09:23:19.734Z,98457.00
2023-10-22T09:24:55.576Z,98458.00
2023-10-22T09:26:43.788Z,98456.00
2023-10-22T09:28:21.468Z,98460.00
2023-10-22T09:29:57.444Z,98453.00
2023-10-22T09:31:30.869Z,98466.00
2023-10-22T09:33:03.521Z,98464.00
2023-10-22T09:34:37.032Z,98465.00
2023-10-22T09:36:12.356Z,98470.00
2023-10-22T09:37:54.983Z,98468.00
2023-10-22T09:39:35.294Z,98470.00
2023-10-22T09:41:09.511Z,98473.00
2023-10-22T09:42:42.599Z,98468.00
2023-10-22T09:44:15.818Z,98477.00
2023-10-22T09:45:49.608Z,98477.00
2023-10-22T09:47:25.940Z,98476.00
2023-10-22T09:49:01.081Z,98484.00
2023-10-22T09:50:43.791Z,98481.00
2023-10-22T09:52:19.002Z,98489.00
2023-10-22T09:53:55.340Z,98483.00
2023-10-22T09:55:31.076Z,98485.00
2023-10-22T09:57:11.282Z,98495.00
2023-10-22T09:58:46.385Z,98497.00
2023-10-22T10:00:23.247Z,98497.00
2023-10-22T10:02:02.406Z,98495.00
2023-10-22T10:03:35.435Z,98492.00
2023-10-22T10:05:11.134Z,98497.00
2023-10-22T10:06:46.273Z,98499.00
2023-10-22T10:08:19.933Z,98495.00
2023-10-22T10:09:56.404Z,98495.00
2023-10-22T10:11:29.276Z,98498.00
2023-10-22T10:13:03.823Z,98498.00
2023-10-22T10:14:43.512Z,98495.00
2023-10-22T10:16:16.787Z,98503.00
2023-10-22T10:17:53.756Z,98506.00
2023-10-22T10:19:27.085Z,98498.00
2023-10-22T10:21:45.546Z,98512.00
2023-10-22T10:23:21.098Z,98508.00
2023-10-22T10:25:30.003Z,98512.00
2023-10-22T10:27:26.622Z,98513.00
2023-10-22T10:29:07.792Z,98514.00
2023-10-22T10:30:41.588Z,98516.00
2023-10-22T10:32:23.316Z,98519.00
2023-10-22T10:34:05.283Z,98517.00
2023-10-22T10:35:47.441Z,98520.00
2023-10-22T10:37:21.999Z,98525.00
2023-10-22T10:38:55.351Z,98527.00
2023-10-22T10:40:42.912Z,98525.00
2023-10-22T10:42:49.649Z,98526.00
2023-10-22T10:44:22.796Z,98528.00
2023-10-22T10:46:26.987Z,98529.00
2023-10-22T10:48:00.524Z,98526.00
2023-10-22T10:49:58.695Z,98524.00
2023-10-22T10:51:31.985Z,98525.00
2023-10-22T10:53:04.394Z,98524.00
2023-10-22T10:54:37.762Z,98529.00
2023-10-22T10:56:10.546Z,98523.00
2023-10-22T10:57:46.312Z,98518.00
2023-10-22T10:59:32.743Z,98523.00
2023-10-22T11:01:06.503Z,98522.00
2023-10-22T11:02:44.695Z,98526.00
2023-10-22T11:04:16.991Z,98525.00
2023-10-22T11:05:51.830Z,98516.00
2023-10-22T11:07:27.400Z,98514.00
2023-10-22T11:09:00.875Z,98522.00
2023-10-22T11:10:34.364Z,98519.00
2023-10-22T11:12:10.087Z,98521.00
2023-10-22T11:13:43.341Z,98542.00
2023-10-22T11:15:17.449Z,98535.00
2023-10-22T11:16:56.971Z,98524.00
2023-10-22T11:18:30.213Z,98536.00
2023-10-22T11:20:05.562Z,98539.00
2023-10-22T11:21:41.487Z,98537.00
2023-10-22T11:23:21.124Z,98528.00
2023-10-22T11:24:56.841Z,98534.00
2023-10-22T11:26:30.202Z,98530.00
2023-10-22T11:28:04.056Z,98531.00
2023-10-22T11:29:41.465Z,98524.00
2023-10-22T11:31:25.401Z,98536.00
2023-10-22T11:32:57.692Z,98527.00
2023-10-22T11:34:30.970Z,98530.00
2023-10-22T11:36:19.308Z,98541.00
2023-10-22T11:37:55.399Z,98536.00
2023-10-22T11:39:41.728Z,98538.00
2023-10-22T11:41:17.608Z,98537.00
2023-10-22T11:42:49.955Z,98550.00
2023-10-22T11:44:35.065Z,98551.00
2023-10-22T11:46:07.953Z,98545.00
2023-10-22T11:47:41.249Z,98558.00
2023-10-22T11:49:13.648Z,98556.00
2023-10-22T11:50:47.560Z,98555.00
2023-10-22T11:52:38.836Z,98561.00
2023-10-22T11:54:13.800Z,98558.00
2023-10-22T11:55:47.377Z,98563.00
2023-10-22T11:57:19.622Z,98561.00
2023-10-22T11:58:53.652Z,98560.00
2023-10-22T12:00:26.385Z,98574.00
2023-10-22T12:01:59.584Z,98569.00
2023-10-22T12:03:31.939Z,98566.00
2023-10-22T12:05:06.531Z,98562.00
2023-10-22T12:06:39.664Z,98573.00
2023-10-22T12:08:12.913Z,98575.00
2023-10-22T12:09:47.452Z,98577.00
2023-10-22T12:11:19.661Z,98569.00
2023-10-22T12:12:52.949Z,98576.00
2023-10-22T12:14:25.341Z,98569.00
2023-10-22T12:15:58.486Z,98579.00
2023-10-22T12:17:30.822Z,98573.00
2023-10-22T12:19:04.268Z,98580.00
2023-10-22T12:20:37.789Z,98577.00
2023-10-22T12:22:10.546Z,98582.00
2023-10-22T12:23:49.552Z,98575.00
2023-10-22T12:25:25.373Z,98580.00
2023-10-22T12:26:57.532Z,98579.00
2023-10-22T12:28:30.821Z,98578.00
2023-10-22T12:30:05.988Z,98581.00
2023-10-22T12:31:38.281Z,98577.00
2023-10-22T12:33:23.247Z,98581.00
2023-10-22T12:34:56.298Z,98578.00
2023-10-22T12:36:29.594Z,98587.00
2023-10-22T12:38:02.863Z,98584.00
2023-10-22T12:39:35.361Z,98589.00
2023-10-22T12:41:09.972Z,98592.00
2023-10-22T12:42:42.630Z,98594.00
2023-10-22T12:44:16.066Z,98599.00
2023-10-22T12:45:48.319Z,98598.00
2023-10-22T12:47:21.469Z,98598.00
2023-10-22T12:48:53.985Z,98604.00
2023-10-22T12:50:27.441Z,98594.00
2023-10-22T12:52:00.231Z,98601.00
2023-10-22T12:53:33.677Z,98599.00
2023-10-22T12:55:07.319Z,98597.00
2023-10-22T12:56:42.101Z,98597.00
2023-10-22T12:58:14.184Z,98603.00
2023-10-22T12:59:47.761Z,98593.00
2023-10-22T13:01:21.229Z,98612.00
2023-10-22T13:02:55.871Z,98615.00
2023-10-22T13:04:29.826Z,98605.00
2023-10-22T13:06:06.957Z,98609.00
2023-10-22T13:07:41.311Z,98617.00
2023-10-22T13:09:14.443Z,98617.00
2023-10-22T13:10:50.949Z,98623.00
2023-10-22T13:12:25.640Z,98624.00
2023-10-22T13:13:57.969Z,98624.00
2023-10-22T13:15:31.314Z,98610.00
2023-10-22T13:17:04.643Z,98625.00
2023-10-22T13:18:37.872Z,98627.00
2023-10-22T13:20:11.796Z,98631.00
2023-10-22T13:21:45.090Z,98632.00
2023-10-22T13:23:17.322Z,98633.00
2023-10-22T13:24:50.584Z,98629.00
2023-10-22T13:26:22.883Z,98620.00
2023-10-22T13:27:57.666Z,98624.00
2023-10-22T13:29:29.956Z,98625.00
2023-10-22T13:31:04.685Z,98632.00
2023-10-22T13:32:36.750Z,98627.00
2023-10-22T13:34:10.096Z,98628.00
2023-10-22T13:35:42.607Z,98634.00
2023-10-22T13:37:18.525Z,98637.00
2023-10-22T13:38:52.073Z,98632.00
2023-10-22T13:40:24.540Z,98629.00
2023-10-22T13:41:57.807Z,98629.00
2023-10-22T13:43:31.490Z,98627.00
2023-10-22T13:45:05.758Z,98638.00
2023-10-22T13:46:37.993Z,98638.00
2023-10-22T13:48:11.976Z,98637.00
2023-10-22T13:49:45.467Z,98636.00
2023-10-22T13:51:18.943Z,98649.00
2023-10-22T13:52:51.170Z,98632.00
2023-10-22T13:54:24.901Z,98645.00
2023-10-22T13:55:57.822Z,98644.00
2023-10-22T13:57:31.401Z,98646.00
2023-10-22T13:59:07.026Z,98652.00
2023-10-22T14:00:40.457Z,98651.00
2023-10-22T14:02:12.967Z,98652.00
2023-10-22T14:03:46.412Z,98655.00
2023-10-22T14:05:18.776Z,98653.00
2023-10-22T14:06:52.011Z,98662.00
2023-10-22T14:08:25.479Z,98665.00
2023-10-22T14:09:57.969Z,98656.00
2023-10-22T14:11:31.143Z,98650.00
2023-10-22T14:13:05.676Z,98658.00
2023-10-22T14:14:39.508Z,98656.00
2023-10-22T14:16:14.789Z,98657.00
2023-10-22T14:17:48.303Z,98663.00
2023-10-22T14:19:22.623Z,98657.00
2023-10-22T14:20:55.977Z,98661.00
2023-10-22T14:22:28.232Z,98662.00
2023-10-22T14:24:01.465Z,98669.00
2023-10-22T14:25:36.136Z,98660.00
2023-10-22T14:27:14.279Z,98669.00
2023-10-22T14:28:48.202Z,98661.00
2023-10-22T14:30:21.882Z,98672.00
2023-10-22T14:31:55.174Z,98667.00
2023-10-22T14:33:27.731Z,98671.00
2023-10-22T14:35:00.973Z,98663.00
2023-10-22T14:36:35.333Z,98669.00
2023-10-22T14:38:08.799Z,98673.00
2023-10-22T14:39:41.041Z,98673.00
2023-10-22T14:41:14.287Z,98677.00
2023-10-22T14:42:48.519Z,98672.00
2023-10-22T14:44:22.744Z,98673.00
2023-10-22T14:46:01.485Z,98675.00
2023-10-22T14:47:33.708Z,98676.00
2023-10-22T14:49:07.981Z,98677.00
2023-10-22T14:50:40.361Z,98676.00
2023-10-22T14:52:13.537Z,98682.00
2023-10-22T14:53:46.051Z,98678.00
2023-10-22T14:55:19.315Z,98682.00
2023-10-22T14:56:51.618Z,98687.00
2023-10-22T14:58:24.923Z,98689.00
2023-10-22T14:59:58.155Z,98688.00
2023-10-22T15:01:32.663Z,98693.00
2023-10-22T15:03:06.127Z,98676.00
2023-10-22T15:04:39.570Z,98675.00
2023-10-22T15:06:12.512Z,98683.00
2023-10-22T15:07:47.081Z,98678.00
2023-10-22T15:09:19.338Z,98685.00
2023-10-22T15:10:53.080Z,98690.00
2023-10-22T15:12:26.430Z,98695.00
2023-10-22T15:13:58.644Z,98693.00
2023-10-22T15:15:39.387Z,98703.00
2023-10-22T15:17:13.058Z,98687.00
2023-10-22T15:18:46.573Z,98701.00
2023-10-22T15:20:18.930Z,98696.00
2023-10-22T15:21:52.189Z,98695.00
2023-10-22T15:23:24.493Z,98699.00
2023-10-22T15:24:57.689Z,98697.00
2023-10-22T15:26:29.952Z,98701.00
2023-10-22T15:28:04.287Z,98705.00
2023-10-22T15:29:37.030Z,98705.00
2023-10-22T15:31:10.696Z,98708.00
2023-10-22T15:32:44.484Z,98705.00
2023-10-22T15:34:17.810Z,98706.00
2023-10-22T15:35:57.741Z,98708.00
2023-10-22T15:37:31.189Z,98714.00
2023-10-22T15:39:03.798Z,98708.00
2023-10-22T15:40:37.420Z,98719.00
2023-10-22T15:42:09.648Z,98714.00
2023-10-22T15:43:42.844Z,98718.00
2023-10-22T15:45:15.318Z,98718.00
2023-10-22T15:46:51.063Z,98713.00
2023-10-22T15:48:27.365Z,98716.00
2023-10-22T15:50:02.363Z,98717.00
2023-10-22T15:51:35.561Z,98721.00
2023-10-22T15:53:07.923Z,98724.00
2023-10-22T15:54:41.188Z,98727.00
2023-10-22T15:56:15.923Z,98728.00
2023-10-22T15:57:52.850Z,98730.00
2023-10-22T15:59:26.112Z,98724.00
2023-10-22T16:00:58.689Z,98725.00
2023-10-22T16:02:32.042Z,98719.00
2023-10-22T16:04:08.374Z,98724.00
2023-10-22T16:05:42.123Z,98715.00
2023-10-22T16:07:14.297Z,98719.00
2023-10-22T16:08:47.522Z,98722.00
2023-10-22T16:10:20.008Z,98728.00
2023-10-22T16:11:53.222Z,98719.00
2023-10-22T16:13:25.522Z,98726.00
2023-10-22T16:14:59.050Z,98732.00
2023-10-22T16:16:32.325Z,98725.00
2023-10-22T16:18:05.867Z,98730.00
2023-10-22T16:19:40.518Z,98731.00
2023-10-22T16:21:14.147Z,98739.00
2023-10-22T16:22:46.386Z,98740.00
2023-10-22T16:24:19.863Z,98732.00
2023-10-22T16:25:52.085Z,98738.00
2023-10-22T16:27:25.374Z,98734.00
2023-10-22T16:28:58.908Z,98733.00
2023-10-22T16:30:32.879Z,98735.00
2023-10-22T16:32:06.674Z,98732.00
2023-10-22T16:33:40.033Z,98741.00
2023-10-22T16:35:13.587Z,98751.00
2023-10-22T16:36:47.107Z,98752.00
2023-10-22T16:38:20.374Z,98751.00
2023-10-22T16:39:54.152Z,98749.00
2023-10-22T16:41:26.341Z,98755.00
2023-10-22T16:42:59.556Z,98760.00
2023-10-22T16:44:31.862Z,98764.00
2023-10-22T16:46:05.994Z,98767.00
2023-10-22T16:47:38.254Z,98768.00
2023-10-22T16:49:12.679Z,98768.00
2023-10-22T16:50:46.188Z,98768.00
2023-10-22T16:52:20.400Z,98778.00
2023-10-22T16:53:53.023Z,98780.00
2023-10-22T16:55:27.294Z,98777.00
2023-10-22T16:57:01.558Z,98775.00
2023-10-22T16:58:35.084Z,98785.00
2023-10-22T17:00:12.125Z,98788.00
2023-10-22T17:01:45.522Z,98792.00
2023-10-22T17:03:18.052Z,98787.00
2023-10-22T17:04:51.447Z,98792.00
2023-10-22T17:06:26.535Z,98784.00
2023-10-22T17:07:59.978Z,98785.00
2023-10-22T17:09:32.301Z,98801.00
2023-10-22T17:11:07.247Z,98788.00
2023-10-22T17:12:39.898Z,98797.00
2023-10-22T17:14:13.870Z,98800.00
2023-10-22T17:15:46.527Z,98809.00
2023-10-22T17:17:19.836Z,98815.00
2023-10-22T17:18:54.588Z,98815.00
2023-10-22T17:20:28.142Z,98818.00
2023-10-22T17:22:02.678Z,98812.00
2023-10-22T17:23:35.289Z,98826.00
2023-10-22T17:25:10.074Z,98818.00
2023-10-22T17:26:42.152Z,98827.00
2023-10-22T17:28:15.582Z,98824.00
2023-10-22T17:29:47.787Z,98828.00
2023-10-22T17:31:23.530Z,98823.00
2023-10-22T17:32:55.747Z,98820.00
2023-10-22T17:34:28.856Z,98824.00
2023-10-22T17:36:01.216Z,98822.00
2023-10-22T17:37:35.981Z,98825.00
2023-10-22T17:39:08.366Z,98826.00
2023-10-22T17:40:42.461Z,98832.00
2023-10-22T17:42:15.673Z,98837.00
2023-10-22T17:43:47.840Z,98835.00
2023-10-22T17:45:21.718Z,98834.00
2023-10-22T17:46:55.011Z,98835.00
2023-10-22T17:48:27.398Z,98836.00
2023-10-22T17:50:00.688Z,98837.00
2023-10-22T17:51:34.463Z,98839.00
2023-10-22T17:53:23.652Z,98842.00
2023-10-22T17:54:59.364Z,98840.00
2023-10-22T17:56:31.603Z,98846.00
2023-10-22T17:58:06.143Z,98851.00
2023-10-22T17:59:38.459Z,98852.00
2023-10-22T18:01:12.209Z,98847.00
2023-10-22T18:02:44.531Z,98845.00
2023-10-22T18:04:17.925Z,98851.00
2023-10-22T18:05:50.687Z,98860.00
2023-10-22T18:07:23.996Z,98863.00
2023-10-22T18:08:57.890Z,98870.00
2023-10-22T18:10:32.799Z,98862.00
2023-10-22T18:12:06.444Z,98868.00
2023-10-22T18:13:38.704Z,98880.00
2023-10-22T18:15:12.818Z,98877.00
2023-10-22T18:16:45.622Z,98879.00
2023-10-22T18:18:18.957Z,98881.00
2023-10-22T18:19:53.352Z,98875.00
2023-10-22T18:21:26.323Z,98871.00
2023-10-22T18:22:59.690Z,98874.00
2023-10-22T18:24:36.186Z,98880.00
2023-10-22T18:26:09.617Z,98876.00
2023-10-22T18:27:42.855Z,98888.00